Terminal Aerodrome Forecast
Issued by NWS

Home | Current Version | Previous Version | Text Only | Print | Product List | Glossary On
Versions: 1 2 3 4 5 6 7 8 9 10 11 12 13 14 15 16 17
000
FTUS46 KMTR 201100
TAFSJC
TAF
KSJC 201126Z 2012/2112 VRB04KT P6SM OVC012
     FM201600 VRB03KT P6SM FEW008 SCT015
     FM201800 31010KT P6SM SKC
     FM210400 31005KT P6SM SKC
     FM210800 VRB04KT P6SM BKN015=

USA.gov is the U.S. government's official web portal to all federal, state and local government web resources and services.